sensor_id;sensor_type;location;lat;lon;timestamp;temperature;humidity
66610;DHT22;53468;48.276;14.416;2023-07-30T01:38:59;18.90;99.90
66610;DHT22;53468;48.276;14.416;2023-07-30T01:44:46;18.80;99.90
66610;DHT22;53468;48.276;14.416;2023-07-30T03:33:55;18.30;99.90
66610;DHT22;53468;48.276;14.416;2023-07-30T03:39:41;18.50;99.90
66610;DHT22;53468;48.276;14.416;2023-07-30T08:10:16;22.40;99.90
66610;DHT22;53468;48.276;14.416;2023-07-30T08:21:31;22.30;99.90
66610;DHT22;53468;48.276;14.416;2023-07-30T08:28:01;22.30;99.90
66610;DHT22;53468;48.276;14.416;2023-07-30T08:33:14;22.40;99.90
66610;DHT22;53468;48.276;14.416;2023-07-30T08:38:33;23.30;99.90
66610;DHT22;53468;48.276;14.416;2023-07-30T08:44:04;23.40;99.90
66610;DHT22;53468;48.276;14.416;2023-07-30T08:49:39;23.50;99.90
66610;DHT22;53468;48.276;14.416;2023-07-30T08:54:50;24.20;99.90
66610;DHT22;53468;48.276;14.416;2023-07-30T09:00:02;24.50;99.90
66610;DHT22;53468;48.276;14.416;2023-07-30T09:05:10;24.80;99.90
66610;DHT22;53468;48.276;14.416;2023-07-30T09:10:15;25.40;99.90
66610;DHT22;53468;48.276;14.416;2023-07-30T09:15:29;25.00;99.90
66610;DHT22;53468;48.276;14.416;2023-07-30T09:20:58;25.50;99.90
66610;DHT22;53468;48.276;14.416;2023-07-30T09:26:06;25.40;99.90
66610;DHT22;53468;48.276;14.416;2023-07-30T09:31:13;25.30;99.90
66610;DHT22;53468;48.276;14.416;2023-07-30T09:36:19;25.50;99.90
66610;DHT22;53468;48.276;14.416;2023-07-30T09:41:29;25.50;99.90
66610;DHT22;53468;48.276;14.416;2023-07-30T09:46:42;25.70;99.90
66610;DHT22;53468;48.276;14.416;2023-07-30T09:51:53;25.30;99.90
66610;DHT22;53468;48.276;14.416;2023-07-30T09:57:28;24.80;99.90
66610;DHT22;53468;48.276;14.416;2023-07-30T10:02:38;24.80;99.90
66610;DHT22;53468;48.276;14.416;2023-07-30T10:07:49;25.10;99.90
66610;DHT22;53468;48.276;14.416;2023-07-30T10:12:56;25.10;99.90
66610;DHT22;53468;48.276;14.416;2023-07-30T10:18:10;25.50;99.90
66610;DHT22;53468;48.276;14.416;2023-07-30T10:23:15;25.70;99.90
66610;DHT22;53468;48.276;14.416;2023-07-30T10:28:33;25.20;99.90
66610;DHT22;53468;48.276;14.416;2023-07-30T10:33:54;24.70;99.90
66610;DHT22;53468;48.276;14.416;2023-07-30T10:39:10;24.90;99.90
66610;DHT22;53468;48.276;14.416;2023-07-30T10:44:24;25.40;99.90
66610;DHT22;53468;48.276;14.416;2023-07-30T10:49:38;25.80;99.90
66610;DHT22;53468;48.276;14.416;2023-07-30T10:54:44;26.20;99.90
66610;DHT22;53468;48.276;14.416;2023-07-30T10:59:52;26.60;99.90
66610;DHT22;53468;48.276;14.416;2023-07-30T11:05:14;26.10;99.90
66610;DHT22;53468;48.276;14.416;2023-07-30T11:10:19;26.10;99.90
66610;DHT22;53468;48.276;14.416;2023-07-30T11:15:47;25.90;99.90
66610;DHT22;53468;48.276;14.416;2023-07-30T11:21:17;25.90;99.90
66610;DHT22;53468;48.276;14.416;2023-07-30T11:26:43;26.10;99.90
66610;DHT22;53468;48.276;14.416;2023-07-30T11:31:52;25.90;99.90
66610;DHT22;53468;48.276;14.416;2023-07-30T11:37:02;26.00;99.90
66610;DHT22;53468;48.276;14.416;2023-07-30T11:42:08;26.10;99.90
66610;DHT22;53468;48.276;14.416;2023-07-30T11:47:21;26.00;99.90
66610;DHT22;53468;48.276;14.416;2023-07-30T11:52:27;26.20;99.90
66610;DHT22;53468;48.276;14.416;2023-07-30T11:57:37;26.20;99.90
66610;DHT22;53468;48.276;14.416;2023-07-30T12:02:42;26.70;99.90
66610;DHT22;53468;48.276;14.416;2023-07-30T12:07:50;26.90;99.90
66610;DHT22;53468;48.276;14.416;2023-07-30T12:12:57;27.10;99.90
66610;DHT22;53468;48.276;14.416;2023-07-30T12:18:23;27.00;99.90
66610;DHT22;53468;48.276;14.416;2023-07-30T12:23:31;26.90;99.90
66610;DHT22;53468;48.276;14.416;2023-07-30T12:28:37;26.70;99.90
66610;DHT22;53468;48.276;14.416;2023-07-30T12:33:42;26.60;99.90
66610;DHT22;53468;48.276;14.416;2023-07-30T12:38:47;26.80;99.90
66610;DHT22;53468;48.276;14.416;2023-07-30T12:43:54;26.70;99.20
66610;DHT22;53468;48.276;14.416;2023-07-30T12:49:02;26.60;99.90
66610;DHT22;53468;48.276;14.416;2023-07-30T12:54:16;26.40;99.90
66610;DHT22;53468;48.276;14.416;2023-07-30T12:59:20;26.20;99.90
66610;DHT22;53468;48.276;14.416;2023-07-30T13:04:28;25.80;99.90
66610;DHT22;53468;48.276;14.416;2023-07-30T13:09:34;25.40;99.90
66610;DHT22;53468;48.276;14.416;2023-07-30T13:14:40;25.10;99.90
66610;DHT22;53468;48.276;14.416;2023-07-30T13:20:05;25.10;99.90
66610;DHT22;53468;48.276;14.416;2023-07-30T13:25:17;24.80;99.90
66610;DHT22;53468;48.276;14.416;2023-07-30T13:30:23;24.80;99.90
66610;DHT22;53468;48.276;14.416;2023-07-30T13:35:31;24.70;99.90
66610;DHT22;53468;48.276;14.416;2023-07-30T13:40:40;24.60;99.90
66610;DHT22;53468;48.276;14.416;2023-07-30T13:45:47;24.40;99.90
66610;DHT22;53468;48.276;14.416;2023-07-30T13:50:54;24.10;99.90
66610;DHT22;53468;48.276;14.416;2023-07-30T13:56:01;23.90;99.90
66610;DHT22;53468;48.276;14.416;2023-07-30T14:01:10;23.20;99.90
66610;DHT22;53468;48.276;14.416;2023-07-30T14:06:35;21.90;99.90
66610;DHT22;53468;48.276;14.416;2023-07-30T14:11:50;21.40;99.90
66610;DHT22;53468;48.276;14.416;2023-07-30T14:17:20;21.10;99.90
66610;DHT22;53468;48.276;14.416;2023-07-30T14:22:40;20.80;99.90
66610;DHT22;53468;48.276;14.416;2023-07-30T14:28:40;20.30;99.90
66610;DHT22;53468;48.276;14.416;2023-07-30T14:34:04;20.20;99.90
66610;DHT22;53468;48.276;14.416;2023-07-30T14:39:52;20.70;99.90
66610;DHT22;53468;48.276;14.416;2023-07-30T14:45:13;21.40;99.90
66610;DHT22;53468;48.276;14.416;2023-07-30T14:51:01;21.80;99.90
66610;DHT22;53468;48.276;14.416;2023-07-30T14:56:57;22.10;99.90
66610;DHT22;53468;48.276;14.416;2023-07-30T15:02:24;22.30;99.90
66610;DHT22;53468;48.276;14.416;2023-07-30T15:08:02;21.90;99.90
66610;DHT22;53468;48.276;14.416;2023-07-30T15:13:34;22.10;99.90
66610;DHT22;53468;48.276;14.416;2023-07-30T15:18:51;22.30;99.90
66610;DHT22;53468;48.276;14.416;2023-07-30T15:24:15;22.30;99.90
66610;DHT22;53468;48.276;14.416;2023-07-30T15:29:21;22.60;99.90
66610;DHT22;53468;48.276;14.416;2023-07-30T15:34:58;22.40;99.90
66610;DHT22;53468;48.276;14.416;2023-07-30T15:40:07;22.50;99.90
66610;DHT22;53468;48.276;14.416;2023-07-30T15:57:10;22.50;99.90
66610;DHT22;53468;48.276;14.416;2023-07-30T16:02:19;22.70;99.90
66610;DHT22;53468;48.276;14.416;2023-07-30T16:07:25;22.50;99.90
66610;DHT22;53468;48.276;14.416;2023-07-30T16:12:39;22.70;99.90
66610;DHT22;53468;48.276;14.416;2023-07-30T16:17:48;22.60;99.90
66610;DHT22;53468;48.276;14.416;2023-07-30T16:23:23;22.60;99.90
66610;DHT22;53468;48.276;14.416;2023-07-30T16:29:06;22.60;99.90
66610;DHT22;53468;48.276;14.416;2023-07-30T16:34:30;22.70;99.90
66610;DHT22;53468;48.276;14.416;2023-07-30T16:39:52;22.70;99.90
66610;DHT22;53468;48.276;14.416;2023-07-30T16:51:36;22.80;99.90
66610;DHT22;53468;48.276;14.416;2023-07-30T16:56:46;22.50;99.90
66610;DHT22;53468;48.276;14.416;2023-07-30T17:02:15;22.50;99.90
66610;DHT22;53468;48.276;14.416;2023-07-30T17:07:29;22.70;99.90
66610;DHT22;53468;48.276;14.416;2023-07-30T17:13:02;22.70;99.90
66610;DHT22;53468;48.276;14.416;2023-07-30T17:18:53;22.50;99.90
66610;DHT22;53468;48.276;14.416;2023-07-30T17:30:22;22.10;99.90
66610;DHT22;53468;48.276;14.416;2023-07-30T17:35:39;22.30;99.90
66610;DHT22;53468;48.276;14.416;2023-07-30T17:40:58;22.00;99.90
66610;DHT22;53468;48.276;14.416;2023-07-30T17:46:35;22.20;99.90
66610;DHT22;53468;48.276;14.416;2023-07-30T17:51:52;22.20;99.90
66610;DHT22;53468;48.276;14.416;2023-07-30T17:57:20;22.20;99.90
66610;DHT22;53468;48.276;14.416;2023-07-30T18:03:13;22.00;99.90
66610;DHT22;53468;48.276;14.416;2023-07-30T18:08:45;21.90;99.90
66610;DHT22;53468;48.276;14.416;2023-07-30T18:14:28;21.70;99.90
66610;DHT22;53468;48.276;14.416;2023-07-30T18:25:31;21.40;99.90
66610;DHT22;53468;48.276;14.416;2023-07-30T18:30:46;21.20;99.90
66610;DHT22;53468;48.276;14.416;2023-07-30T18:36:04;21.00;99.90
66610;DHT22;53468;48.276;14.416;2023-07-30T18:41:17;20.80;99.90
66610;DHT22;53468;48.276;14.416;2023-07-30T18:46:22;20.60;99.90
66610;DHT22;53468;48.276;14.416;2023-07-30T18:51:30;20.20;99.90
66610;DHT22;53468;48.276;14.416;2023-07-30T18:56:53;20.00;99.90
66610;DHT22;53468;48.276;14.416;2023-07-30T19:01:59;19.90;99.90
66610;DHT22;53468;48.276;14.416;2023-07-30T19:07:13;19.80;99.90
